Terminal Aerodrome Forecast
Issued by NWS Upton, NY

Home | Current Version | Previous Version | Text Only | Print | Product List | Glossary On
Versions: 1 2 3 4 5 6 7 8 9 10 11 12 13 14 15 16 17 18 19 20 21 22 23 24 25 26 27 28 29 30 31 32 33 34 35 36 37
657
FTUS41 KOKX 040043 AAA
TAFLGA
TAF AMD
KLGA 040043Z 0401/0424 05009KT 4SM -DZ BR SCT006 OVC015
     FM040200 06007KT 2SM BR OVC006
     FM041500 06012KT 4SM -SHRA BR SCT006 OVC012=

USA.gov is the U.S. government's official web portal to all federal, state and local government web resources and services.